Portada
METAR-TAF:

METAR-TAF

Aeropuertos :

Bizerta, Túnez

latitud: 37-15N, longitud: 009-48E, altitud: 5 m

Observación

El informe se hizo hace 20 minutos, a las 18:00 UTC
Viento 7 kt del norte-noroeste
Temperatura 22°C
Humedad 38%
Presión 1012 hPa
Visibilidad 10 km o más
Escasas nubes a una altura de 2000 ft

METAR: DTTB 061800Z 33007KT 9999 FEW020 22/07 Q1012

Hora: 19:20 (18:20 UTC)

Pronóstico

El informe se hizo hace 3 horas y 20 minutos, a las 15:00 UTC
Pronóstico válido del 06 a las 16 UTC al 07 a las 01 UTC
Viento 14 kt del oeste-noroeste
Visibilidad 10 km o más
Nubes dispersas a una altura de 2000 ft

TAF: DTTB 061500Z 0616/0701 29014KT 9999 SCT020

Observaciones y pronósticos meteorológicos de más de 4000 aeropuertos (mensajes METAR y TAF).

Los puntos amarillos y rojos representan las estaciones disponibles.

Ponga el ratón en el punto deseado para ver el nombre de la estación.

Haga clic para ver las observaciones y los pronósticos meteorológicos.

Para cambiar el mapa : haga clic en los botones verdes con una cruz de color negro para hacer un zoom, en el botón verde con un guión para alejar o en las flechas verdes para mapas adyacentes.


METAR-TAF: